TVF85UA LEMG-LFPO
Flight info
| Callsign | TVF85UA |
|---|---|
| Flight time | 1h 56m |
| Altitude | 38000 |
| Route | BLN DCT MORAL DCT BEXID DCT VTB DCT RBO DCT OSTIX DCT GASMO DCT DGO DCT CEGAM DCT BAGAS DCT SSN DCT LUSEM DCT LULUT DCT TUDRA/N0384F280 DCT BEVOL UT158 AMB |
| Aircraft | A20N/M-SDE2E3FGHIRWXY/LB1 |
Departure
| Time | 2026-05-05 16:41 |
|---|---|
| Airport | Málaga-Costa del Sol Airport (LEMG) |
Arrival
| Time | 2026-05-05 18:37 |
|---|---|
| Airport | Paris-Orly Airport (LFPO) |
| Time | Latitude | Longitude | Altitude | Speed | Heading |
|---|---|---|---|---|---|
| 2026-05-05 16:20 | 36.67711 | -4.49540 | 42 ft | 0 kts | 41° |
| 2026-05-05 16:32 | 36.67707 | -4.49545 | 45 ft | 4 kts | 42° |
| 2026-05-05 16:32 | 36.67687 | -4.49568 | 45 ft | 4 kts | 50° |
| 2026-05-05 16:33 | 36.67673 | -4.49595 | 45 ft | 4 kts | 76° |
| 2026-05-05 16:33 | 36.67675 | -4.49620 | 43 ft | 3 kts | 124° |
| 2026-05-05 16:33 | 36.67690 | -4.49645 | 44 ft | 2 kts | 131° |
| 2026-05-05 16:33 | 36.67691 | -4.49646 | 44 ft | 0 kts | 131° |
| 2026-05-05 16:36 | 36.67683 | -4.49634 | 42 ft | 10 kts | 131° |
| 2026-05-05 16:36 | 36.67629 | -4.49558 | 45 ft | 13 kts | 131° |
| 2026-05-05 16:36 | 36.67559 | -4.49472 | 45 ft | 14 kts | 153° |
| 2026-05-05 16:36 | 36.67474 | -4.49472 | 45 ft | 12 kts | 190° |
| 2026-05-05 16:37 | 36.67403 | -4.49482 | 45 ft | 11 kts | 148° |
| 2026-05-05 16:37 | 36.67341 | -4.49405 | 46 ft | 14 kts | 133° |
| 2026-05-05 16:37 | 36.67275 | -4.49311 | 45 ft | 15 kts | 131° |
| 2026-05-05 16:37 | 36.67204 | -4.49212 | 45 ft | 15 kts | 132° |
| 2026-05-05 16:38 | 36.67132 | -4.49114 | 44 ft | 15 kts | 132° |
| 2026-05-05 16:38 | 36.67064 | -4.49020 | 43 ft | 14 kts | 130° |
| 2026-05-05 16:38 | 36.67001 | -4.48931 | 45 ft | 13 kts | 131° |
| 2026-05-05 16:38 | 36.66938 | -4.48841 | 42 ft | 15 kts | 131° |
| 2026-05-05 16:39 | 36.66847 | -4.48714 | 39 ft | 21 kts | 133° |
| 2026-05-05 16:39 | 36.66748 | -4.48574 | 38 ft | 22 kts | 131° |
| 2026-05-05 16:39 | 36.66631 | -4.48506 | 39 ft | 19 kts | 209° |
| 2026-05-05 16:39 | 36.66569 | -4.48614 | 43 ft | 14 kts | 282° |
| 2026-05-05 16:40 | 36.66644 | -4.48724 | 43 ft | 32 kts | 312° |
| 2026-05-05 16:40 | 36.66938 | -4.49136 | 49 ft | 93 kts | 311° |
| 2026-05-05 16:40 | 36.67475 | -4.49891 | 53 ft | 141 kts | 311° |
| 2026-05-05 16:40 | 36.68169 | -4.50876 | 315 ft | 157 kts | 313° |
| 2026-05-05 16:41 | 36.69060 | -4.51732 | 744 ft | 167 kts | 327° |
| 2026-05-05 16:41 | 36.70113 | -4.52431 | 1175 ft | 177 kts | 333° |
| 2026-05-05 16:41 | 36.71306 | -4.52949 | 1692 ft | 185 kts | 338° |
| 2026-05-05 16:41 | 36.72503 | -4.53671 | 2188 ft | 198 kts | 326° |
| 2026-05-05 16:42 | 36.73659 | -4.54645 | 2895 ft | 201 kts | 323° |
| 2026-05-05 16:42 | 36.74805 | -4.55657 | 3731 ft | 202 kts | 323° |
| 2026-05-05 16:42 | 36.75952 | -4.56667 | 4556 ft | 203 kts | 323° |
| 2026-05-05 16:42 | 36.77128 | -4.57696 | 5255 ft | 210 kts | 324° |
| 2026-05-05 16:43 | 36.78360 | -4.58766 | 5902 ft | 221 kts | 324° |
| 2026-05-05 16:43 | 36.79658 | -4.59857 | 6654 ft | 229 kts | 329° |
| 2026-05-05 16:43 | 36.81172 | -4.60480 | 7483 ft | 234 kts | 354° |
| 2026-05-05 16:43 | 36.82791 | -4.60058 | 8236 ft | 251 kts | 26° |
| 2026-05-05 16:44 | 36.84247 | -4.58739 | 8888 ft | 266 kts | 38° |
| 2026-05-05 16:44 | 36.85646 | -4.57166 | 9672 ft | 274 kts | 39° |
| 2026-05-05 16:44 | 36.87075 | -4.55531 | 10384 ft | 282 kts | 39° |
| 2026-05-05 16:44 | 36.88537 | -4.53876 | 11155 ft | 285 kts | 39° |
| 2026-05-05 16:45 | 36.90023 | -4.52212 | 11954 ft | 289 kts | 38° |
| 2026-05-05 16:45 | 36.91537 | -4.50528 | 12790 ft | 293 kts | 38° |
| 2026-05-05 16:45 | 36.93065 | -4.48836 | 13649 ft | 295 kts | 38° |
| 2026-05-05 16:45 | 36.94618 | -4.47119 | 14357 ft | 300 kts | 38° |
| 2026-05-05 16:46 | 36.96197 | -4.45376 | 15079 ft | 305 kts | 38° |
| 2026-05-05 16:46 | 36.97813 | -4.43646 | 15783 ft | 306 kts | 33° |
| 2026-05-05 16:46 | 36.99575 | -4.42098 | 16332 ft | 317 kts | 29° |
| 2026-05-05 16:46 | 37.01488 | -4.40565 | 16647 ft | 336 kts | 28° |
| 2026-05-05 16:47 | 37.03523 | -4.38964 | 16947 ft | 355 kts | 28° |
| 2026-05-05 16:47 | 37.05663 | -4.37277 | 17275 ft | 372 kts | 28° |
| 2026-05-05 16:47 | 37.07888 | -4.35513 | 17761 ft | 384 kts | 28° |
| 2026-05-05 16:47 | 37.10162 | -4.33704 | 18367 ft | 390 kts | 29° |
| 2026-05-05 16:48 | 37.12469 | -4.31866 | 18958 ft | 395 kts | 28° |
| 2026-05-05 16:48 | 37.14800 | -4.30008 | 19567 ft | 399 kts | 28° |
| 2026-05-05 16:48 | 37.17125 | -4.28153 | 20180 ft | 404 kts | 28° |
| 2026-05-05 16:48 | 37.19539 | -4.26227 | 20772 ft | 408 kts | 28° |
| 2026-05-05 16:49 | 37.21946 | -4.24304 | 21387 ft | 412 kts | 28° |
| 2026-05-05 16:49 | 37.24374 | -4.22365 | 21971 ft | 416 kts | 28° |
| 2026-05-05 16:49 | 37.26796 | -4.20432 | 22523 ft | 420 kts | 28° |
| 2026-05-05 16:49 | 37.29305 | -4.18427 | 23119 ft | 424 kts | 28° |
| 2026-05-05 16:50 | 37.31771 | -4.16451 | 23667 ft | 428 kts | 28° |
| 2026-05-05 16:50 | 37.34292 | -4.14429 | 24129 ft | 432 kts | 28° |
| 2026-05-05 16:50 | 37.36834 | -4.12388 | 24566 ft | 436 kts | 28° |
| 2026-05-05 16:50 | 37.39399 | -4.10328 | 25020 ft | 439 kts | 28° |
| 2026-05-05 16:51 | 37.41985 | -4.08249 | 25444 ft | 444 kts | 27° |
| 2026-05-05 16:51 | 37.44601 | -4.06146 | 25837 ft | 448 kts | 27° |
| 2026-05-05 16:51 | 37.47238 | -4.04024 | 26236 ft | 452 kts | 27° |
| 2026-05-05 16:51 | 37.49895 | -4.01883 | 26643 ft | 455 kts | 27° |
| 2026-05-05 16:52 | 37.52573 | -3.99723 | 27061 ft | 459 kts | 27° |
| 2026-05-05 16:52 | 37.55270 | -3.97546 | 27476 ft | 462 kts | 27° |
| 2026-05-05 16:52 | 37.57988 | -3.95351 | 27845 ft | 466 kts | 27° |
| 2026-05-05 16:52 | 37.60725 | -3.93139 | 28207 ft | 470 kts | 27° |
| 2026-05-05 16:53 | 37.63482 | -3.90908 | 28608 ft | 472 kts | 27° |
| 2026-05-05 16:53 | 37.66257 | -3.88660 | 29036 ft | 475 kts | 27° |
| 2026-05-05 16:53 | 37.69046 | -3.86399 | 29380 ft | 478 kts | 27° |
| 2026-05-05 16:53 | 37.71855 | -3.84121 | 29735 ft | 481 kts | 27° |
| 2026-05-05 16:54 | 37.74677 | -3.81829 | 30124 ft | 484 kts | 27° |
| 2026-05-05 16:54 | 37.77524 | -3.79515 | 30369 ft | 488 kts | 27° |
| 2026-05-05 16:54 | 37.80391 | -3.77184 | 30629 ft | 491 kts | 27° |
| 2026-05-05 16:54 | 37.83313 | -3.74989 | 31019 ft | 484 kts | 19° |
| 2026-05-05 16:55 | 37.86421 | -3.73479 | 31429 ft | 476 kts | 11° |
| 2026-05-05 16:55 | 37.89574 | -3.72241 | 31854 ft | 473 kts | 9° |
| 2026-05-05 16:55 | 37.92729 | -3.71051 | 32227 ft | 473 kts | 9° |
| 2026-05-05 16:55 | 37.95883 | -3.69864 | 32592 ft | 472 kts | 9° |
| 2026-05-05 16:56 | 37.99030 | -3.68674 | 32962 ft | 472 kts | 9° |
| 2026-05-05 16:56 | 38.02180 | -3.67476 | 33317 ft | 472 kts | 9° |
| 2026-05-05 16:56 | 38.05280 | -3.66294 | 33661 ft | 472 kts | 9° |
| 2026-05-05 16:56 | 38.08422 | -3.65094 | 33981 ft | 472 kts | 9° |
| 2026-05-05 16:57 | 38.11562 | -3.63892 | 34280 ft | 471 kts | 9° |
| 2026-05-05 16:57 | 38.14708 | -3.62820 | 34660 ft | 464 kts | 3° |
| 2026-05-05 16:57 | 38.17866 | -3.62180 | 35002 ft | 457 kts | 359° |
| 2026-05-05 16:57 | 38.21013 | -3.61755 | 35286 ft | 453 kts | 356° |
| 2026-05-05 16:58 | 38.24149 | -3.61445 | 35554 ft | 452 kts | 355° |
| 2026-05-05 16:58 | 38.27283 | -3.61183 | 35821 ft | 451 kts | 355° |
| 2026-05-05 16:58 | 38.30411 | -3.60930 | 36076 ft | 450 kts | 355° |
| 2026-05-05 16:58 | 38.33537 | -3.60668 | 36344 ft | 450 kts | 355° |
| 2026-05-05 16:59 | 38.36662 | -3.60391 | 36609 ft | 450 kts | 356° |
| 2026-05-05 16:59 | 38.39786 | -3.60101 | 36833 ft | 450 kts | 356° |
| 2026-05-05 16:59 | 38.42906 | -3.59804 | 37071 ft | 450 kts | 356° |
| 2026-05-05 16:59 | 38.46026 | -3.59502 | 37303 ft | 449 kts | 356° |
| 2026-05-05 17:00 | 38.49141 | -3.59199 | 37522 ft | 449 kts | 356° |
| 2026-05-05 17:00 | 38.52250 | -3.58895 | 37745 ft | 448 kts | 356° |
| 2026-05-05 17:00 | 38.55364 | -3.58591 | 37915 ft | 449 kts | 356° |
| 2026-05-05 17:00 | 38.58484 | -3.58288 | 37938 ft | 450 kts | 356° |
| 2026-05-05 17:01 | 38.64725 | -3.57678 | 37937 ft | 449 kts | 356° |
| 2026-05-05 17:01 | 38.70901 | -3.57073 | 37937 ft | 448 kts | 356° |
| 2026-05-05 17:02 | 38.77126 | -3.56464 | 37938 ft | 448 kts | 356° |
| 2026-05-05 17:02 | 38.83339 | -3.55856 | 37937 ft | 448 kts | 356° |
| 2026-05-05 17:03 | 38.89555 | -3.55244 | 37930 ft | 446 kts | 356° |
| 2026-05-05 17:03 | 38.95736 | -3.54635 | 37930 ft | 445 kts | 356° |
| 2026-05-05 17:04 | 39.01912 | -3.54027 | 37930 ft | 445 kts | 356° |
| 2026-05-05 17:04 | 39.08087 | -3.53415 | 37947 ft | 445 kts | 356° |
| 2026-05-05 17:05 | 39.14263 | -3.52800 | 37929 ft | 445 kts | 356° |
| 2026-05-05 17:05 | 39.20428 | -3.52185 | 37929 ft | 444 kts | 356° |
| 2026-05-05 17:06 | 39.26595 | -3.51569 | 37922 ft | 444 kts | 356° |
| 2026-05-05 17:06 | 39.32762 | -3.50953 | 37930 ft | 445 kts | 356° |
| 2026-05-05 17:07 | 39.38953 | -3.50335 | 37925 ft | 447 kts | 356° |
| 2026-05-05 17:07 | 39.45151 | -3.49712 | 37927 ft | 447 kts | 356° |
| 2026-05-05 17:08 | 39.51349 | -3.49088 | 37927 ft | 447 kts | 356° |
| 2026-05-05 17:08 | 39.57546 | -3.48464 | 37927 ft | 447 kts | 356° |
| 2026-05-05 17:09 | 39.63749 | -3.47841 | 37928 ft | 447 kts | 356° |
| 2026-05-05 17:09 | 39.69945 | -3.47220 | 37932 ft | 447 kts | 356° |
| 2026-05-05 17:10 | 39.76146 | -3.46598 | 37958 ft | 447 kts | 356° |
| 2026-05-05 17:10 | 39.82353 | -3.45692 | 37932 ft | 451 kts | 1° |
| 2026-05-05 17:11 | 39.88513 | -3.44425 | 37937 ft | 452 kts | 2° |
| 2026-05-05 17:11 | 39.94723 | -3.43109 | 37937 ft | 452 kts | 1° |
| 2026-05-05 17:12 | 40.00932 | -3.41833 | 37940 ft | 452 kts | 1° |
| 2026-05-05 17:12 | 40.07155 | -3.40579 | 37936 ft | 452 kts | 1° |
| 2026-05-05 17:13 | 40.13375 | -3.39330 | 37942 ft | 452 kts | 1° |
| 2026-05-05 17:13 | 40.19592 | -3.38078 | 37945 ft | 452 kts | 1° |
| 2026-05-05 17:14 | 40.25813 | -3.36821 | 37936 ft | 452 kts | 2° |
| 2026-05-05 17:14 | 40.32034 | -3.35562 | 37938 ft | 452 kts | 2° |
| 2026-05-05 17:15 | 40.38252 | -3.34301 | 37938 ft | 452 kts | 2° |
| 2026-05-05 17:15 | 40.43422 | -3.33251 | 37976 ft | 452 kts | 2° |
| 2026-05-05 17:16 | 40.50685 | -3.31773 | 37938 ft | 452 kts | 2° |
| 2026-05-05 17:16 | 40.56899 | -3.30505 | 37938 ft | 452 kts | 2° |
| 2026-05-05 17:17 | 40.63112 | -3.29236 | 37939 ft | 452 kts | 2° |
| 2026-05-05 17:17 | 40.69323 | -3.27965 | 37942 ft | 452 kts | 2° |
| 2026-05-05 17:18 | 40.75536 | -3.26691 | 37946 ft | 452 kts | 2° |
| 2026-05-05 17:18 | 40.81741 | -3.25416 | 37946 ft | 451 kts | 2° |
| 2026-05-05 17:19 | 40.87952 | -3.24113 | 37963 ft | 452 kts | 3° |
| 2026-05-05 17:19 | 40.94156 | -3.22728 | 37953 ft | 452 kts | 4° |
| 2026-05-05 17:20 | 41.00360 | -3.21325 | 37952 ft | 452 kts | 4° |
| 2026-05-05 17:20 | 41.06524 | -3.19935 | 37964 ft | 452 kts | 4° |
| 2026-05-05 17:21 | 41.12728 | -3.18539 | 37967 ft | 453 kts | 4° |
| 2026-05-05 17:22 | 41.22056 | -3.16437 | 37973 ft | 453 kts | 4° |
| 2026-05-05 17:22 | 41.28271 | -3.15033 | 37976 ft | 453 kts | 4° |
| 2026-05-05 17:23 | 41.34491 | -3.13626 | 37984 ft | 453 kts | 4° |
| 2026-05-05 17:23 | 41.39698 | -3.12446 | 37984 ft | 453 kts | 4° |
| 2026-05-05 17:24 | 41.45920 | -3.11032 | 37983 ft | 453 kts | 4° |
| 2026-05-05 17:24 | 41.52099 | -3.09628 | 38010 ft | 453 kts | 4° |
| 2026-05-05 17:25 | 41.58320 | -3.08217 | 37995 ft | 453 kts | 5° |
| 2026-05-05 17:25 | 41.64542 | -3.06805 | 37993 ft | 453 kts | 5° |
| 2026-05-05 17:26 | 41.70760 | -3.05390 | 37989 ft | 453 kts | 5° |
| 2026-05-05 17:26 | 41.76988 | -3.03966 | 37989 ft | 455 kts | 5° |
| 2026-05-05 17:27 | 41.83228 | -3.02529 | 37992 ft | 455 kts | 5° |
| 2026-05-05 17:27 | 41.89467 | -3.01088 | 37989 ft | 455 kts | 5° |
| 2026-05-05 17:28 | 41.95711 | -2.99644 | 38012 ft | 455 kts | 5° |
| 2026-05-05 17:28 | 42.01955 | -2.98198 | 37999 ft | 455 kts | 5° |
| 2026-05-05 17:29 | 42.08200 | -2.96749 | 38010 ft | 455 kts | 5° |
| 2026-05-05 17:29 | 42.14440 | -2.95298 | 38004 ft | 455 kts | 5° |
| 2026-05-05 17:30 | 42.20688 | -2.93843 | 38009 ft | 456 kts | 5° |
| 2026-05-05 17:30 | 42.26935 | -2.92381 | 38016 ft | 456 kts | 5° |
| 2026-05-05 17:31 | 42.33188 | -2.90918 | 38018 ft | 456 kts | 5° |
| 2026-05-05 17:31 | 42.39437 | -2.89456 | 38015 ft | 455 kts | 6° |
| 2026-05-05 17:32 | 42.45493 | -2.86796 | 38010 ft | 464 kts | 25° |
| 2026-05-05 17:32 | 42.50765 | -2.81668 | 38019 ft | 470 kts | 37° |
| 2026-05-05 17:33 | 42.55658 | -2.75856 | 38008 ft | 471 kts | 39° |
| 2026-05-05 17:33 | 42.60517 | -2.69876 | 38007 ft | 471 kts | 39° |
| 2026-05-05 17:34 | 42.65380 | -2.63922 | 38013 ft | 471 kts | 39° |
| 2026-05-05 17:34 | 42.70263 | -2.57984 | 38010 ft | 471 kts | 39° |
| 2026-05-05 17:35 | 42.75149 | -2.52049 | 38013 ft | 471 kts | 39° |
| 2026-05-05 17:35 | 42.80039 | -2.46098 | 38015 ft | 471 kts | 39° |
| 2026-05-05 17:36 | 42.84922 | -2.40140 | 38007 ft | 471 kts | 39° |
| 2026-05-05 17:36 | 42.89799 | -2.34173 | 37998 ft | 471 kts | 39° |
| 2026-05-05 17:37 | 42.94676 | -2.28195 | 37990 ft | 471 kts | 39° |
| 2026-05-05 17:37 | 42.99551 | -2.22204 | 37993 ft | 472 kts | 39° |
| 2026-05-05 17:38 | 43.04424 | -2.16195 | 38000 ft | 471 kts | 40° |
| 2026-05-05 17:38 | 43.09255 | -2.10222 | 38000 ft | 471 kts | 40° |
| 2026-05-05 17:39 | 43.14149 | -2.04163 | 37999 ft | 471 kts | 40° |
| 2026-05-05 17:39 | 43.18972 | -1.98181 | 37996 ft | 471 kts | 40° |
| 2026-05-05 17:40 | 43.23826 | -1.92148 | 38000 ft | 471 kts | 40° |
| 2026-05-05 17:40 | 43.28679 | -1.86103 | 38020 ft | 472 kts | 40° |
| 2026-05-05 17:41 | 43.33976 | -1.80878 | 37994 ft | 469 kts | 29° |
| 2026-05-05 17:41 | 43.39549 | -1.76225 | 37992 ft | 469 kts | 30° |
| 2026-05-05 17:42 | 43.45036 | -1.71337 | 37996 ft | 469 kts | 31° |
| 2026-05-05 17:42 | 43.50469 | -1.66382 | 37991 ft | 468 kts | 31° |
| 2026-05-05 17:43 | 43.55907 | -1.61425 | 37992 ft | 468 kts | 31° |
| 2026-05-05 17:43 | 43.61334 | -1.56491 | 37979 ft | 468 kts | 31° |
| 2026-05-05 17:44 | 43.66769 | -1.51548 | 37985 ft | 467 kts | 31° |
| 2026-05-05 17:44 | 43.72204 | -1.46595 | 37980 ft | 468 kts | 31° |
| 2026-05-05 17:45 | 43.77642 | -1.41628 | 37971 ft | 469 kts | 31° |
| 2026-05-05 17:45 | 43.83079 | -1.36650 | 37989 ft | 469 kts | 32° |
| 2026-05-05 17:46 | 43.88509 | -1.31666 | 37973 ft | 467 kts | 32° |
| 2026-05-05 17:46 | 43.93927 | -1.26683 | 37976 ft | 467 kts | 32° |
| 2026-05-05 17:47 | 43.99346 | -1.21689 | 37970 ft | 467 kts | 32° |
| 2026-05-05 17:47 | 44.04759 | -1.16689 | 37973 ft | 467 kts | 32° |
| 2026-05-05 17:48 | 44.10159 | -1.11689 | 37967 ft | 466 kts | 32° |
| 2026-05-05 17:48 | 44.15528 | -1.06707 | 37963 ft | 467 kts | 32° |
| 2026-05-05 17:49 | 44.20932 | -1.01681 | 37963 ft | 467 kts | 32° |
| 2026-05-05 17:49 | 44.26339 | -0.96641 | 37963 ft | 467 kts | 32° |
| 2026-05-05 17:50 | 44.31735 | -0.91600 | 37954 ft | 467 kts | 32° |
| 2026-05-05 17:50 | 44.37126 | -0.86553 | 37952 ft | 467 kts | 32° |
| 2026-05-05 17:51 | 44.42707 | -0.81954 | 37961 ft | 465 kts | 27° |
| 2026-05-05 17:51 | 44.48431 | -0.77719 | 37949 ft | 465 kts | 26° |
| 2026-05-05 17:52 | 44.54179 | -0.73546 | 37941 ft | 466 kts | 26° |
| 2026-05-05 17:52 | 44.59944 | -0.69356 | 37940 ft | 467 kts | 26° |
| 2026-05-05 17:53 | 44.65702 | -0.65149 | 37940 ft | 466 kts | 26° |
| 2026-05-05 17:53 | 44.71450 | -0.60933 | 37937 ft | 466 kts | 26° |
| 2026-05-05 17:54 | 44.77193 | -0.56711 | 37938 ft | 466 kts | 26° |
| 2026-05-05 17:54 | 44.82937 | -0.52478 | 37938 ft | 466 kts | 26° |
| 2026-05-05 17:55 | 44.88678 | -0.48240 | 37935 ft | 466 kts | 26° |
| 2026-05-05 17:55 | 44.94421 | -0.43989 | 37934 ft | 466 kts | 26° |
| 2026-05-05 17:56 | 45.00161 | -0.39731 | 37938 ft | 466 kts | 26° |
| 2026-05-05 17:56 | 45.05886 | -0.35475 | 37929 ft | 464 kts | 26° |
| 2026-05-05 17:57 | 45.11592 | -0.31222 | 37928 ft | 463 kts | 26° |
| 2026-05-05 17:57 | 45.17298 | -0.26961 | 37924 ft | 464 kts | 26° |
| 2026-05-05 17:58 | 45.23001 | -0.22692 | 37922 ft | 463 kts | 27° |
| 2026-05-05 17:58 | 45.28682 | -0.18429 | 37922 ft | 462 kts | 27° |
| 2026-05-05 17:59 | 45.34357 | -0.14161 | 37919 ft | 462 kts | 27° |
| 2026-05-05 17:59 | 45.40035 | -0.09882 | 37916 ft | 462 kts | 27° |
| 2026-05-05 18:00 | 45.45704 | -0.05599 | 37916 ft | 461 kts | 27° |
| 2026-05-05 18:00 | 45.51372 | -0.01307 | 37918 ft | 461 kts | 27° |
| 2026-05-05 18:01 | 45.57044 | 0.02997 | 37914 ft | 462 kts | 27° |
| 2026-05-05 18:01 | 45.62717 | 0.07312 | 37909 ft | 462 kts | 27° |
| 2026-05-05 18:02 | 45.68386 | 0.11636 | 37910 ft | 462 kts | 27° |
| 2026-05-05 18:02 | 45.74053 | 0.15967 | 37909 ft | 462 kts | 27° |
| 2026-05-05 18:03 | 45.79682 | 0.20279 | 37910 ft | 462 kts | 28° |
| 2026-05-05 18:03 | 45.85346 | 0.24627 | 37909 ft | 462 kts | 28° |
| 2026-05-05 18:04 | 45.91004 | 0.28982 | 37907 ft | 462 kts | 28° |
| 2026-05-05 18:04 | 45.96667 | 0.33350 | 37901 ft | 462 kts | 28° |
| 2026-05-05 18:05 | 46.02326 | 0.37725 | 37895 ft | 462 kts | 28° |
| 2026-05-05 18:05 | 46.07986 | 0.42111 | 37891 ft | 462 kts | 28° |
| 2026-05-05 18:06 | 46.13648 | 0.46509 | 37883 ft | 462 kts | 28° |
| 2026-05-05 18:06 | 46.19302 | 0.50912 | 37886 ft | 462 kts | 28° |
| 2026-05-05 18:07 | 46.24951 | 0.55321 | 37878 ft | 461 kts | 28° |
| 2026-05-05 18:07 | 46.30594 | 0.59736 | 37878 ft | 461 kts | 28° |
| 2026-05-05 18:08 | 46.36237 | 0.64160 | 37874 ft | 461 kts | 28° |
| 2026-05-05 18:08 | 46.41876 | 0.68593 | 37870 ft | 461 kts | 28° |
| 2026-05-05 18:09 | 46.47508 | 0.73030 | 37870 ft | 461 kts | 28° |
| 2026-05-05 18:09 | 46.53212 | 0.77273 | 37865 ft | 460 kts | 20° |
| 2026-05-05 18:10 | 46.58310 | 0.79449 | 37861 ft | 460 kts | 13° |
| 2026-05-05 18:10 | 46.64546 | 0.81525 | 37856 ft | 460 kts | 12° |
| 2026-05-05 18:11 | 46.70800 | 0.83458 | 37856 ft | 460 kts | 11° |
| 2026-05-05 18:11 | 46.77054 | 0.85399 | 37314 ft | 459 kts | 12° |
| 2026-05-05 18:11 | 46.80191 | 0.86384 | 36594 ft | 462 kts | 12° |
| 2026-05-05 18:12 | 46.83340 | 0.87380 | 35875 ft | 465 kts | 12° |
| 2026-05-05 18:12 | 46.86513 | 0.88388 | 35144 ft | 469 kts | 12° |
| 2026-05-05 18:12 | 46.89713 | 0.89407 | 34381 ft | 473 kts | 13° |
| 2026-05-05 18:12 | 46.92939 | 0.90437 | 33571 ft | 476 kts | 13° |
| 2026-05-05 18:13 | 46.96190 | 0.91475 | 32765 ft | 478 kts | 14° |
| 2026-05-05 18:13 | 46.99404 | 0.92501 | 32467 ft | 467 kts | 14° |
| 2026-05-05 18:13 | 47.02559 | 0.93507 | 31988 ft | 461 kts | 14° |
| 2026-05-05 18:13 | 47.05676 | 0.94500 | 31532 ft | 455 kts | 14° |
| 2026-05-05 18:14 | 47.08741 | 0.95476 | 31097 ft | 448 kts | 14° |
| 2026-05-05 18:14 | 47.11767 | 0.96441 | 30639 ft | 441 kts | 14° |
| 2026-05-05 18:14 | 47.14732 | 0.97386 | 30009 ft | 431 kts | 15° |
| 2026-05-05 18:14 | 47.17632 | 0.98313 | 29137 ft | 424 kts | 15° |
| 2026-05-05 18:15 | 47.20506 | 0.99234 | 28186 ft | 420 kts | 15° |
| 2026-05-05 18:15 | 47.23346 | 1.00145 | 27570 ft | 417 kts | 15° |
| 2026-05-05 18:15 | 47.26168 | 1.01052 | 27038 ft | 413 kts | 14° |
| 2026-05-05 18:15 | 47.28964 | 1.01950 | 26502 ft | 410 kts | 14° |
| 2026-05-05 18:16 | 47.31740 | 1.02843 | 25948 ft | 407 kts | 14° |
| 2026-05-05 18:16 | 47.34499 | 1.03732 | 25403 ft | 405 kts | 14° |
| 2026-05-05 18:16 | 47.37250 | 1.04618 | 24862 ft | 404 kts | 14° |
| 2026-05-05 18:16 | 47.39989 | 1.05503 | 24318 ft | 402 kts | 13° |
| 2026-05-05 18:17 | 47.42711 | 1.06449 | 23772 ft | 401 kts | 17° |
| 2026-05-05 18:17 | 47.45351 | 1.07686 | 23308 ft | 396 kts | 19° |
| 2026-05-05 18:17 | 47.47944 | 1.09004 | 22832 ft | 391 kts | 20° |
| 2026-05-05 18:17 | 47.50497 | 1.10318 | 22381 ft | 386 kts | 19° |
| 2026-05-05 18:18 | 47.53015 | 1.11604 | 21947 ft | 380 kts | 19° |
| 2026-05-05 18:18 | 47.55501 | 1.12869 | 21511 ft | 376 kts | 19° |
| 2026-05-05 18:18 | 47.57958 | 1.14117 | 21086 ft | 371 kts | 19° |
| 2026-05-05 18:18 | 47.60386 | 1.15351 | 20660 ft | 367 kts | 19° |
| 2026-05-05 18:19 | 47.62787 | 1.16573 | 20253 ft | 363 kts | 19° |
| 2026-05-05 18:19 | 47.65172 | 1.17787 | 19836 ft | 362 kts | 19° |
| 2026-05-05 18:19 | 47.67554 | 1.19001 | 19424 ft | 362 kts | 19° |
| 2026-05-05 18:19 | 47.69934 | 1.20214 | 19011 ft | 361 kts | 18° |
| 2026-05-05 18:20 | 47.72304 | 1.21424 | 18587 ft | 360 kts | 18° |
| 2026-05-05 18:20 | 47.74674 | 1.22634 | 18190 ft | 359 kts | 18° |
| 2026-05-05 18:20 | 47.77027 | 1.23837 | 17741 ft | 357 kts | 18° |
| 2026-05-05 18:20 | 47.79369 | 1.25036 | 17326 ft | 355 kts | 18° |
| 2026-05-05 18:21 | 47.81696 | 1.26228 | 16929 ft | 353 kts | 18° |
| 2026-05-05 18:21 | 47.84012 | 1.27415 | 16523 ft | 351 kts | 18° |
| 2026-05-05 18:21 | 47.86317 | 1.28598 | 16115 ft | 349 kts | 18° |
| 2026-05-05 18:21 | 47.88600 | 1.29771 | 15726 ft | 346 kts | 18° |
| 2026-05-05 18:22 | 47.90874 | 1.30941 | 15322 ft | 344 kts | 18° |
| 2026-05-05 18:22 | 47.93130 | 1.32102 | 14942 ft | 342 kts | 18° |
| 2026-05-05 18:22 | 47.95375 | 1.33259 | 14551 ft | 340 kts | 18° |
| 2026-05-05 18:22 | 47.97604 | 1.34408 | 14168 ft | 338 kts | 18° |
| 2026-05-05 18:23 | 47.99821 | 1.35552 | 13784 ft | 336 kts | 18° |
| 2026-05-05 18:23 | 48.02023 | 1.36690 | 13364 ft | 334 kts | 17° |
| 2026-05-05 18:23 | 48.04177 | 1.37803 | 12969 ft | 330 kts | 18° |
| 2026-05-05 18:23 | 48.06275 | 1.39164 | 12739 ft | 329 kts | 28° |
| 2026-05-05 18:24 | 48.08221 | 1.40970 | 12453 ft | 329 kts | 32° |
| 2026-05-05 18:24 | 48.10103 | 1.42866 | 12254 ft | 321 kts | 33° |
| 2026-05-05 18:24 | 48.11915 | 1.44714 | 12062 ft | 311 kts | 33° |
| 2026-05-05 18:24 | 48.13681 | 1.46511 | 11808 ft | 304 kts | 33° |
| 2026-05-05 18:25 | 48.15427 | 1.48284 | 11411 ft | 302 kts | 33° |
| 2026-05-05 18:25 | 48.16600 | 1.49474 | 11190 ft | 302 kts | 33° |
| 2026-05-05 18:25 | 48.18898 | 1.51802 | 10774 ft | 300 kts | 33° |
| 2026-05-05 18:25 | 48.20624 | 1.53552 | 10456 ft | 299 kts | 33° |
| 2026-05-05 18:26 | 48.22341 | 1.55291 | 10209 ft | 295 kts | 34° |
| 2026-05-05 18:26 | 48.24016 | 1.56991 | 9946 ft | 288 kts | 34° |
| 2026-05-05 18:26 | 48.25667 | 1.58668 | 9543 ft | 286 kts | 34° |
| 2026-05-05 18:26 | 48.27312 | 1.60342 | 9132 ft | 284 kts | 34° |
| 2026-05-05 18:27 | 48.28933 | 1.61992 | 8777 ft | 280 kts | 34° |
| 2026-05-05 18:27 | 48.30534 | 1.63623 | 8436 ft | 276 kts | 34° |
| 2026-05-05 18:27 | 48.32115 | 1.65234 | 8104 ft | 274 kts | 34° |
| 2026-05-05 18:27 | 48.33687 | 1.66837 | 7768 ft | 272 kts | 34° |
| 2026-05-05 18:28 | 48.36787 | 1.70003 | 7096 ft | 267 kts | 34° |
| 2026-05-05 18:28 | 48.38326 | 1.71576 | 6781 ft | 266 kts | 33° |
| 2026-05-05 18:28 | 48.39823 | 1.73201 | 6417 ft | 266 kts | 36° |
| 2026-05-05 18:29 | 48.41284 | 1.74931 | 6109 ft | 268 kts | 38° |
| 2026-05-05 18:29 | 48.42721 | 1.76715 | 5772 ft | 267 kts | 39° |
| 2026-05-05 18:29 | 48.44126 | 1.78494 | 5457 ft | 261 kts | 39° |
| 2026-05-05 18:29 | 48.45508 | 1.80253 | 5128 ft | 259 kts | 39° |
| 2026-05-05 18:30 | 48.46885 | 1.82000 | 4809 ft | 258 kts | 39° |
| 2026-05-05 18:30 | 48.48261 | 1.83737 | 4534 ft | 257 kts | 39° |
| 2026-05-05 18:30 | 48.49629 | 1.85459 | 4333 ft | 257 kts | 39° |
| 2026-05-05 18:30 | 48.51002 | 1.87180 | 4060 ft | 255 kts | 39° |
| 2026-05-05 18:31 | 48.52363 | 1.88886 | 4001 ft | 254 kts | 38° |
| 2026-05-05 18:31 | 48.53724 | 1.90590 | 3999 ft | 255 kts | 39° |
| 2026-05-05 18:31 | 48.55085 | 1.92298 | 3999 ft | 255 kts | 39° |
| 2026-05-05 18:31 | 48.56447 | 1.94011 | 4000 ft | 255 kts | 37° |
| 2026-05-05 18:32 | 48.57812 | 1.95698 | 3992 ft | 253 kts | 38° |
| 2026-05-05 18:32 | 48.59157 | 1.97367 | 3999 ft | 254 kts | 39° |
| 2026-05-05 18:32 | 48.60386 | 1.99275 | 3999 ft | 254 kts | 51° |
| 2026-05-05 18:32 | 48.61325 | 2.01538 | 4001 ft | 255 kts | 59° |
| 2026-05-05 18:33 | 48.62161 | 2.03945 | 3997 ft | 255 kts | 60° |
| 2026-05-05 18:33 | 48.62976 | 2.06285 | 4000 ft | 255 kts | 60° |
| 2026-05-05 18:33 | 48.63823 | 2.08648 | 3880 ft | 255 kts | 59° |
| 2026-05-05 18:33 | 48.64677 | 2.10978 | 3530 ft | 252 kts | 59° |
| 2026-05-05 18:34 | 48.65496 | 2.13301 | 3155 ft | 249 kts | 60° |
| 2026-05-05 18:34 | 48.66304 | 2.15591 | 2776 ft | 244 kts | 60° |
| 2026-05-05 18:34 | 48.67086 | 2.17801 | 2462 ft | 233 kts | 60° |
| 2026-05-05 18:34 | 48.67835 | 2.19910 | 2166 ft | 221 kts | 59° |
| 2026-05-05 18:35 | 48.68526 | 2.21864 | 1874 ft | 199 kts | 59° |
| 2026-05-05 18:35 | 48.69143 | 2.23608 | 1625 ft | 177 kts | 58° |
| 2026-05-05 18:35 | 48.69700 | 2.25178 | 1377 ft | 161 kts | 59° |
| 2026-05-05 18:35 | 48.70197 | 2.26586 | 1148 ft | 143 kts | 58° |
| 2026-05-05 18:36 | 48.70644 | 2.27850 | 943 ft | 129 kts | 59° |
| 2026-05-05 18:36 | 48.71063 | 2.29034 | 797 ft | 128 kts | 59° |
| 2026-05-05 18:36 | 48.71480 | 2.30219 | 632 ft | 127 kts | 59° |
| 2026-05-05 18:36 | 48.71901 | 2.31411 | 454 ft | 127 kts | 57° |
| 2026-05-05 18:37 | 48.72313 | 2.32575 | 303 ft | 121 kts | 62° |
| 2026-05-05 18:37 | 48.72607 | 2.33414 | 302 ft | 49 kts | 62° |
| 2026-05-05 18:37 | 48.72701 | 2.33679 | 302 ft | 23 kts | 63° |
| 2026-05-05 18:37 | 48.72756 | 2.33881 | 301 ft | 19 kts | 77° |
| 2026-05-05 18:38 | 48.72777 | 2.34055 | 301 ft | 15 kts | 85° |
| 2026-05-05 18:38 | 48.72787 | 2.34191 | 300 ft | 12 kts | 83° |
| 2026-05-05 18:38 | 48.72797 | 2.34318 | 299 ft | 12 kts | 83° |
| 2026-05-05 18:38 | 48.72807 | 2.34436 | 302 ft | 12 kts | 82° |
| 2026-05-05 18:39 | 48.72822 | 2.34593 | 298 ft | 18 kts | 81° |
| 2026-05-05 18:39 | 48.72842 | 2.34778 | 298 ft | 17 kts | 80° |
| 2026-05-05 18:39 | 48.72857 | 2.34933 | 298 ft | 13 kts | 81° |
| 2026-05-05 18:39 | 48.72860 | 2.35069 | 299 ft | 11 kts | 101° |
| 2026-05-05 18:40 | 48.72831 | 2.35165 | 299 ft | 11 kts | 126° |
| 2026-05-05 18:40 | 48.72762 | 2.35234 | 301 ft | 11 kts | 161° |
| 2026-05-05 18:40 | 48.72673 | 2.35266 | 300 ft | 21 kts | 165° |
| 2026-05-05 18:40 | 48.72543 | 2.35320 | 297 ft | 18 kts | 165° |
| 2026-05-05 18:41 | 48.72442 | 2.35379 | 301 ft | 14 kts | 135° |
| 2026-05-05 18:41 | 48.72429 | 2.35506 | 300 ft | 13 kts | 73° |
| 2026-05-05 18:41 | 48.72457 | 2.35642 | 299 ft | 15 kts | 72° |
| 2026-05-05 18:41 | 48.72477 | 2.35796 | 301 ft | 14 kts | 90° |
| 2026-05-05 18:42 | 48.72470 | 2.35928 | 298 ft | 11 kts | 95° |
| 2026-05-05 18:42 | 48.72487 | 2.36004 | 301 ft | 6 kts | 26° |
| 2026-05-05 18:42 | 48.72516 | 2.36015 | 300 ft | 3 kts | 12° |
| 2026-05-05 18:42 | 48.72534 | 2.36021 | 299 ft | 2 kts | 12° |
| 2026-05-05 18:43 | 48.72542 | 2.36023 | 300 ft | 1 kts | 13° |
| 2026-05-05 18:43 | 48.72550 | 2.36026 | 301 ft | 0 kts | 13° |